Map

Track Data

SID SEASON NUMBER BASIN SUBBASIN NAME ISO_TIME NATURE LAT LON WMO_WIND WMO_PRES WMO_AGENCY TRACK_TYPE DIST2LAND LANDFALL IFLAG USA_AGENCY USA_ATCF_ID USA_LAT USA_LON USA_RECORD USA_STATUS USA_WIND USA_PRES USA_SSHS USA_R34_NE USA_R34_SE USA_R34_SW USA_R34_NW USA_R50_NE USA_R50_SE USA_R50_SW USA_R50_NW USA_R64_NE USA_R64_SE USA_R64_SW USA_R64_NW USA_POCI USA_ROCI USA_RMW USA_EYE TOKYO_LAT TOKYO_LON TOKYO_GRADE TOKYO_WIND TOKYO_PRES TOKYO_R50_DIR TOKYO_R50_LONG TOKYO_R50_SHORT TOKYO_R30_DIR TOKYO_R30_LONG TOKYO_R30_SHORT TOKYO_LAND CMA_LAT CMA_LON CMA_CAT CMA_WIND CMA_PRES HKO_LAT HKO_LON HKO_CAT HKO_WIND HKO_PRES NEWDELHI_LAT NEWDELHI_LON NEWDELHI_GRADE NEWDELHI_WIND NEWDELHI_PRES NEWDELHI_CI NEWDELHI_DP NEWDELHI_POCI REUNION_LAT REUNION_LON REUNION_TYPE REUNION_WIND REUNION_PRES REUNION_TNUM REUNION_CI REUNION_RMW REUNION_R34_NE REUNION_R34_SE REUNION_R34_SW REUNION_R34_NW REUNION_R50_NE REUNION_R50_SE REUNION_R50_SW REUNION_R50_NW REUNION_R64_NE REUNION_R64_SE REUNION_R64_SW REUNION_R64_NW BOM_LAT BOM_LON BOM_TYPE BOM_WIND BOM_PRES BOM_TNUM BOM_CI BOM_RMW BOM_R34_NE BOM_R34_SE BOM_R34_SW BOM_R34_NW BOM_R50_NE BOM_R50_SE BOM_R50_SW BOM_R50_NW BOM_R64_NE BOM_R64_SE BOM_R64_SW BOM_R64_NW BOM_ROCI BOM_POCI BOM_EYE BOM_POS_METHOD BOM_PRES_METHOD NADI_LAT NADI_LON NADI_CAT NADI_WIND NADI_PRES WELLINGTON_LAT WELLINGTON_LON WELLINGTON_WIND WELLINGTON_PRES DS824_LAT DS824_LON DS824_STAGE DS824_WIND DS824_PRES TD9636_LAT TD9636_LON TD9636_STAGE TD9636_WIND TD9636_PRES TD9635_LAT TD9635_LON TD9635_WIND TD9635_PRES TD9635_ROCI NEUMANN_LAT NEUMANN_LON NEUMANN_CLASS NEUMANN_WIND NEUMANN_PRES MLC_LAT MLC_LON MLC_CLASS MLC_WIND MLC_PRES USA_GUST BOM_GUST BOM_GUST_PER REUNION_GUST REUNION_GUST_PER USA_SEAHGT USA_SEARAD_NE USA_SEARAD_SE USA_SEARAD_SW USA_SEARAD_NW STORM_SPEED STORM_DIR
1979333N07169 1979 112 WP MM ABBY 1979-11-29 00:00:00 TS 6.80000 169.000 main 1931 1915 O________OO___ jtwc_wp WP271979 6.80000 169.000 15 -1 6.80000 169.000 TC 15 6.80000 169.000 1 15 7 270
1979333N07169 1979 112 WP MM ABBY 1979-11-29 03:00:00 TS 6.80000 168.650 main 1915 1895 P________PP___ WP271979 6.79758 168.635 15 -1 6.79758 168.635 TC 15 6.80483 168.681 1 15 7 270
1979333N07169 1979 112 WP MM ABBY 1979-11-29 06:00:00 TS 6.80255 168.320 main 1895 1881 O________OP___ jtwc_wp WP271979 6.80000 168.300 15 -1 6.80000 168.300 TC 15 6.80765 168.360 1 15 6 271
1979333N07169 1979 112 WP MM ABBY 1979-11-29 09:00:00 TS 6.80717 168.016 main 1881 1867 P________PP___ WP271979 6.80744 168.008 15 -1 6.80744 168.008 TC 15 6.80664 168.034 1 15 6 270
1979333N07169 1979 112 WP MM ABBY 1979-11-29 12:00:00 TS 6.80000 167.700 main 1867 1849 O________OO___ jtwc_wp WP271979 6.80000 167.700 15 -1 6.80000 167.700 TC 15 6.80000 167.700 1 15 7 266
1979333N07169 1979 112 WP MM ABBY 1979-11-29 15:00:00 TS 6.76209 167.319 main 1849 1826 P________PP___ WP271979 6.75003 167.300 15 -1 6.75003 167.300 TC 15 6.78620 167.357 1 15 8 264
1979333N07169 1979 112 WP MM ABBY 1979-11-29 18:00:00 TS 6.72164 166.936 main 1822 1810 O________OP___ jtwc_wp WP271979 6.70000 166.900 15 -1 6.70000 166.900 TC 15 6.76493 167.008 1 15 7 266
1979333N07169 1979 112 WP MM ABBY 1979-11-29 21:00:00 TS 6.71201 166.618 main 1810 1798 P________PP___ WP271979 6.69992 166.600 15 -1 6.69992 166.600 TC 15 6.73620 166.654 1 15 6 268
1979333N07169 1979 112 WP MM ABBY 1979-11-30 00:00:00 TS 6.70000 166.300 main 1798 1784 O________OO___ jtwc_wp WP271979 6.70000 166.300 15 -1 6.70000 166.300 TC 15 6.70000 166.300 1 15 7 266
1979333N07169 1979 112 WP MM ABBY 1979-11-30 03:00:00 TS 6.65874 165.918 main 1784 1763 P________PP___ WP271979 6.65753 165.900 17 -1 6.65753 165.900 TC 17 6.66116 165.954 1 16 8 263
1979333N07169 1979 112 WP MM ABBY 1979-11-30 06:00:00 TS 6.60496 165.536 main 1759 1747 O________OP___ jtwc_wp WP271979 6.60000 165.500 20 -1 6.60000 165.500 TC 20 6.61487 165.608 1 17 7 262
1979333N07169 1979 112 WP MM ABBY 1979-11-30 09:00:00 TS 6.55868 165.214 main 1747 1723 P________PP___ WP271979 6.55744 165.193 20 -1 6.55744 165.193 TC 20 6.56115 165.257 1 18 6 261
1979333N07169 1979 112 WP MM ABBY 1979-11-30 12:00:00 TS 6.50000 164.900 main 1723 1700 O________OO___ jtwc_wp WP271979 6.50000 164.900 20 -1 6.50000 164.900 TC 20 6.50000 164.900 1 20 7 257
1979333N07169 1979 112 WP MM ABBY 1979-11-30 15:00:00 TS 6.41205 164.554 main 1700 1673 P________PP___ WP271979 6.39997 164.565 20 -1 6.39997 164.565 TC 20 6.43619 164.532 1 20 7 256
1979333N07169 1979 112 WP MM ABBY 1979-11-30 18:00:00 TS 6.32164 164.186 main 1673 1647 O________OP___ jtwc_wp WP271979 6.30000 164.200 20 -1 6.30000 164.200 TC 20 6.36492 164.158 1 20 8 259
1979333N07169 1979 112 WP MM ABBY 1979-11-30 21:00:00 TS 6.26707 163.788 main 1647 1621 P________PP___ WP271979 6.25752 163.793 20 -1 6.25752 163.793 TC 20 6.28619 163.779 1 20 8 266
1979333N07169 1979 112 WP MM ABBY 1979-12-01 00:00:00 TS 6.26154 163.369 main 1621 1587 O_O______OO___ jtwc_wp WP271979 6.20000 163.400 20 -1 7.00000 163.000 0 19 1005 6.20000 163.400 TC 20 6.20000 163.400 1 20 8 263
1979333N07169 1979 112 WP MM ABBY 1979-12-01 03:00:00 TS 6.17983 163.022 main 1587 1559 P_P______PP___ WP271979 6.04991 163.107 22 -1 6.87751 162.667 0 19 1004 6.04991 163.107 TC 22 6.09084 163.029 1 21 7 256
1979333N07169 1979 112 WP MM ABBY 1979-12-01 06:00:00 TS 6.08809 162.683 1006 tokyo main 1559 1535 OOO______OP___ jtwc_wp WP271979 5.90000 162.800 25 -1 5.90000 163.000 2 1006 0 0 0 6.80000 162.300 0 19 1004 5.90000 162.800 TC 25 5.97737 162.657 1 22 8 261
1979333N07169 1979 112 WP MM ABBY 1979-12-01 09:00:00 TS 6.05785 162.242 main 1530 1493 PPP______PP___ WP271979 5.83499 162.380 25 -1 5.87019 162.320 2 1005 0 0 6.78003 161.885 0 21 1004 5.83499 162.380 TC 25 5.87521 162.282 1 23 9 264
1979333N07169 1979 112 WP MM ABBY 1979-12-01 12:00:00 TS 5.98947 161.784 1004 tokyo main 1493 1456 OOO______OO___ jtwc_wp WP271979 5.80000 161.900 25 -1 5.80000 161.700 2 1004 0 0 0 6.70000 161.500 1 23 1004 5.80000 161.900 TC 25 5.80000 161.900 1 25 9 258
1979333N07169 1979 112 WP MM ABBY 1979-12-01 15:00:00 TS 5.86363 161.333 main 1448 1411 PPP______PP___ WP271979 5.73504 161.377 27 -1 5.67744 161.190 2 1004 0 0 6.40741 161.250 1 26 1002 5.73504 161.377 TC 27 5.76322 161.471 1 28 9 255
1979333N07169 1979 112 WP MM ABBY 1979-12-01 18:00:00 TS 5.76289 160.922 1004 tokyo main 1411 1390 OOOO_____OP___ jtwc_wp WP271979 5.70000 160.900 30 -1 5.60000 160.800 2 1004 0 0 0 6.10000 161.000 1 29 1000 5.60000 160.800 TD 25 1000 5.70000 160.900 TC 30 5.75515 161.040 1 32 8 262
1979333N07169 1979 112 WP MM ABBY 1979-12-01 21:00:00 TS 5.76193 160.571 main 1390 1369 PPPP_____PP___ WP271979 5.73494 160.563 35 0 5.67745 160.513 2 1000 0 0 5.94758 160.585 1 29 998 5.65251 160.555 TD 27 999 5.73494 160.563 TC 35 5.76948 160.639 1 36 6 274
1979333N07169 1979 112 WP MM ABBY 1979-12-02 00:00:00 TS 5.80435 160.283 35 996 tokyo main 1369 1349 OOOO_____OO___ jtwc_wp WP271979 5.80000 160.300 40 0 5.80000 160.300 3 35 996 0 9 50 50 0 5.90000 160.200 1 29 996 5.70000 160.300 TD 30 998 5.80000 160.300 TC 40 5.80000 160.300 2 40 5 279
1979333N07169 1979 112 WP MM ABBY 1979-12-02 03:00:00 TS 5.84314 160.037 main 1349 1349 PPPP_____PP___ WP271979 5.85000 160.020 40 0 5.85749 160.085 3 35 996 0 9 50 50 5.92745 160.013 1 33 996 5.74251 160.035 TD 30 998 5.85000 160.020 TC 40 5.83141 160.052 2 41 4 282
1979333N07169 1979 112 WP MM ABBY 1979-12-02 06:00:00 TS 5.89622 159.845 35 996 tokyo main 1345 1339 OOOO_____OP___ jtwc_wp WP271979 5.90000 159.800 40 0 5.90000 159.900 3 35 996 0 9 50 50 0 6.00000 159.900 2 38 996 5.80000 159.800 TD 30 998 5.90000 159.800 TC 40 5.87732 159.868 2 42 4 289
1979333N07169 1979 112 WP MM ABBY 1979-12-02 09:00:00 TS 5.95575 159.702 main 1348 1341 PPPP_____PP___ WP271979 5.94997 159.685 42 0 5.94999 159.742 3 35 995 0 9 50 50 6.05000 159.750 2 38 996 5.89999 159.628 TD 30 998 5.94997 159.685 TC 42 5.93458 159.724 2 43 3 295
1979333N07169 1979 112 WP MM ABBY 1979-12-02 12:00:00 TS 6.01667 159.583 35 994 tokyo main 1341 1334 OOOO_____OO___ jtwc_wp WP271979 6.00000 159.600 45 0 6.00000 159.600 3 35 994 0 9 50 50 0 6.10000 159.600 2 38 996 6.00000 159.500 TD 30 998 6.00000 159.600 TC 45 6.00000 159.600 2 45 3 292
1979333N07169 1979 112 WP MM ABBY 1979-12-02 15:00:00 TS 6.06328 159.438 main 1336 1329 PPPP_____PP___ WP271979 6.04251 159.450 45 0 6.04250 159.450 3 35 993 0 9 50 50 6.15000 159.443 2 38 996 6.04250 159.385 TD 30 998 6.04251 159.450 TC 45 6.05968 159.448 2 45 3 290
1979333N07169 1979 112 WP MM ABBY 1979-12-02 18:00:00 TS 6.12125 159.302 35 992 tokyo main 1329 1329 OOOO_____OP___ jtwc_wp WP271979 6.10000 159.300 45 0 6.10000 159.300 3 35 992 0 9 50 50 0 6.20000 159.300 2 38 996 6.10000 159.300 TD 30 998 6.10000 159.300 TC 45 6.12749 159.313 2 45 3 301
1979333N07169 1979 112 WP MM ABBY 1979-12-02 21:00:00 TS 6.21026 159.189 main 1331 1331 PPPP_____PP___ WP271979 6.19250 159.185 45 0 6.19251 159.128 3 45 991 0 9 75 50 6.24249 159.193 2 43 995 6.23499 159.250 TD 35 998 6.19250 159.185 TC 45 6.20656 159.195 2 45 3 314
1979333N07169 1979 112 WP MM ABBY 1979-12-03 00:00:00 TS 6.31667 159.100 55 990 tokyo main 1334 1334 OOOO_____OO___ jtwc_wp WP271979 6.30000 159.100 45 0 6.30000 159.000 4 55 990 9 20 20 2 100 50 0 6.30000 159.100 3 48 995 6.40000 159.200 TS 40 998 6.30000 159.100 TC 45 6.30000 159.100 2 45 3 323
1979333N07169 1979 112 WP MM ABBY 1979-12-03 03:00:00 TS 6.41510 159.033 main 1336 1336 PPPP_____PP___ WP271979 6.39250 159.042 42 0 6.39999 158.977 4 55 992 9 35 35 2 110 55 6.37750 158.993 3 48 995 6.55000 159.100 TS 40 998 6.39250 159.042 TC 42 6.37810 159.045 2 43 2 332
1979333N07169 1979 112 WP MM ABBY 1979-12-03 06:00:00 TS 6.52916 158.985 55 994 tokyo main 1345 1345 OOOO_____OP___ jtwc_wp WP271979 6.50000 159.000 40 0 6.50000 159.000 4 55 994 9 50 50 1 120 60 0 6.50000 158.900 3 48 995 6.70000 159.000 TS 40 998 6.50000 159.000 TC 40 6.47496 159.007 2 42 3 340
1979333N07169 1979 112 WP MM ABBY 1979-12-03 09:00:00 TS 6.65656 158.943 main 1357 1357 PPPP_____PP___ WP271979 6.62750 158.950 40 0 6.57000 159.015 4 50 995 9 1 97 50 6.67000 158.828 3 48 995 6.83499 158.950 TS 40 996 6.62750 158.950 TC 40 6.60935 158.966 2 41 3 344
1979333N07169 1979 112 WP MM ABBY 1979-12-03 12:00:00 TS 6.83333 158.900 45 996 tokyo main 1367 1367 OOOO_____OO___ jtwc_wp WP271979 6.80000 158.900 40 0 6.70000 159.000 3 45 996 0 2 75 40 0 6.90000 158.800 3 48 995 7.00000 158.900 TS 40 995 6.80000 158.900 TC 40 6.80000 158.900 2 40 4 351
1979333N07169 1979 112 WP MM ABBY 1979-12-03 15:00:00 TS 7.08475 158.869 main 1394 1394 PPPP_____PP___ WP271979 7.01248 158.880 40 0 6.95500 158.923 3 45 993 0 2 75 40 7.18499 158.880 3 48 994 7.22749 158.822 TS 42 993 7.01248 158.880 TC 40 7.11606 158.832 2 41 6 349
1979333N07169 1979 112 WP MM ABBY 1979-12-03 18:00:00 TS 7.39661 158.788 45 990 tokyo main 1417 1417 OOOO_____OP___ jtwc_wp WP271979 7.30000 158.800 40 0 7.30000 158.800 3 45 990 0 2 75 40 0 7.50000 158.900 3 48 993 7.50000 158.700 TS 45 992 7.30000 158.800 TC 40 7.47967 158.728 2 42 7 341
1979333N07169 1979 112 WP MM ABBY 1979-12-03 21:00:00 TS 7.77842 158.634 main 1443 1443 PPPP_____PP___ WP271979 7.72995 158.610 42 0 7.73735 158.725 3 47 992 0 2 87 40 7.81494 158.733 3 48 993 7.82989 158.568 TS 47 991 7.72995 158.610 TC 42 7.82846 158.560 2 43 8 328
1979333N07169 1979 112 WP MM ABBY 1979-12-04 00:00:00 TS 8.10000 158.350 50 994 tokyo main 1455 1442 OOOO_____OO___ jtwc_wp WP271979 8.10000 158.300 45 0 8.10000 158.500 4 50 994 0 1 100 40 0 8.10000 158.400 3 48 993 8.10000 158.300 STS 50 990 8.10000 158.300 TC 45 8.10000 158.300 2 45 9 302
1979333N07169 1979 112 WP MM ABBY 1979-12-04 03:00:00 TS 8.23479 157.885 main 1442 1425 PPPP_____PP___ WP271979 8.21000 157.887 50 0 8.21025 157.937 4 50 992 0 1 100 45 8.36758 157.930 3 48 991 8.19520 157.772 STS 50 990 8.21000 157.887 TC 50 8.21571 157.894 2 48 10 279
1979333N07169 1979 112 WP MM ABBY 1979-12-04 06:00:00 TS 8.25801 157.350 50 990 tokyo main 1425 1390 OOOO_____OP___ jtwc_wp WP271979 8.20000 157.400 55 0 8.20000 157.300 4 50 990 0 1 100 50 0 8.50000 157.400 3 48 990 8.20000 157.200 STS 50 990 8.20000 157.400 TC 55 8.24807 157.402 2 52 10 270
1979333N07169 1979 112 WP MM ABBY 1979-12-04 09:00:00 TS 8.23894 156.876 main 1390 1370 PPPP_____PP___ WP271979 8.20756 156.877 57 0 8.20738 156.862 4 52 990 0 1 100 50 8.37995 156.935 3 53 989 8.19988 156.820 STS 50 987 8.20756 156.877 TC 57 8.23133 156.884 2 56 9 266
1979333N07169 1979 112 WP MM ABBY 1979-12-04 12:00:00 TS 8.20000 156.450 55 990 tokyo main 1370 1350 OOOO_____OO___ jtwc_wp WP271979 8.20000 156.400 60 0 8.20000 156.500 4 55 990 8 50 20 8 100 50 0 8.20000 156.500 3 58 989 8.20000 156.500 STS 50 985 8.20000 156.400 TC 60 8.20000 156.400 2 60 8 268
1979333N07169 1979 112 WP MM ABBY 1979-12-04 15:00:00 TS 8.20576 156.094 main 1350 1337 PPPP_____PP___ WP271979 8.19988 156.078 60 0 8.19245 156.142 4 55 987 8 50 20 8 100 50 8.17749 156.070 3 58 989 8.24999 156.143 STS 50 985 8.19988 156.078 TC 60 8.21490 156.052 2 60 7 272
1979333N07169 1979 112 WP MM ABBY 1979-12-04 18:00:00 TS 8.22032 155.774 55 985 tokyo main 1337 1323 OOOO_____OP___ jtwc_wp WP271979 8.20000 155.800 60 0 8.20000 155.800 4 55 985 8 50 20 8 100 50 0 8.20000 155.700 3 58 990 8.30000 155.800 STS 50 985 8.20000 155.800 TC 60 8.22194 155.743 2 60 6 274
1979333N07169 1979 112 WP MM ABBY 1979-12-04 21:00:00 TS 8.24543 155.474 main 1323 1311 PPPP_____PP___ WP271979 8.20745 155.473 60 0 8.27993 155.465 4 57 985 8 50 20 8 100 50 8.22234 155.465 3 58 991 8.33735 155.530 STS 52 985 8.20745 155.473 TC 60 8.21804 155.437 2 60 6 271
1979333N07169 1979 112 WP MM ABBY 1979-12-05 00:00:00 TS 8.23333 155.133 60 985 tokyo main 1307 1281 OOOO_____OO___ jtwc_wp WP271979 8.20000 155.100 60 0 8.30000 155.100 4 60 985 8 50 20 8 100 50 0 8.20000 155.200 3 58 992 8.30000 155.200 STS 55 985 8.20000 155.100 TC 60 8.20000 155.100 2 60 8 261
1979333N07169 1979 112 WP MM ABBY 1979-12-05 03:00:00 TS 8.12360 154.675 main 1281 1253 PPPP_____PP___ WP271979 8.15750 154.665 60 0 8.11502 154.657 4 60 987 8 50 20 8 100 50 8.06513 154.715 3 53 993 8.12258 154.680 STS 55 990 8.15750 154.665 TC 60 8.12389 154.669 2 60 10 255
1979333N07169 1979 112 WP MM ABBY 1979-12-05 06:00:00 TS 7.99003 154.184 60 990 tokyo main 1253 1230 OOOO_____OP___ jtwc_wp WP271979 8.10000 154.200 60 0 7.90000 154.200 4 60 990 8 50 20 8 100 50 0 7.90000 154.200 3 48 995 7.90000 154.100 STS 55 995 8.10000 154.200 TC 60 8.04021 154.207 2 60 10 255
1979333N07169 1979 112 WP MM ABBY 1979-12-05 09:00:00 TS 7.87933 153.746 main 1227 1206 PPPP_____PP___ WP271979 8.01998 153.742 60 0 7.80492 153.800 4 60 990 8 50 20 8 100 50 7.75477 153.872 3 48 995 7.68996 153.577 STS 50 997 8.01998 153.742 TC 60 7.98639 153.741 2 60 9 261
1979333N07169 1979 112 WP MM ABBY 1979-12-05 12:00:00 TS 7.85000 153.317 60 990 tokyo main 1217 1208 OOOO_____OO___ jtwc_wp WP271979 8.00000 153.300 60 0 7.80000 153.400 4 60 990 8 50 20 8 100 50 0 7.70000 153.500 3 48 995 7.60000 153.100 TS 45 1000 8.00000 153.300 TC 60 8.00000 153.300 2 60 9 275
1979333N07169 1979 112 WP MM ABBY 1979-12-05 15:00:00 TS 7.94950 152.859 main 1208 1208 PPPP_____PP___ WP271979 8.10498 152.878 55 0 7.84752 152.942 4 57 990 8 50 20 8 100 50 7.78277 152.843 3 48 995 7.72497 152.663 TS 45 1000 8.10498 152.878 TC 55 8.13177 152.950 2 53 9 289
1979333N07169 1979 112 WP MM ABBY 1979-12-05 18:00:00 TS 8.15531 152.437 55 990 tokyo main 1232 1231 OOOO_____OP___ jtwc_wp WP271979 8.30000 152.500 50 0 8.00000 152.500 4 55 990 8 50 20 8 100 50 0 8.00000 152.200 3 48 995 8.00000 152.300 TS 45 1000 8.30000 152.500 TC 50 8.33189 152.623 2 47 9 303
1979333N07169 1979 112 WP MM ABBY 1979-12-05 21:00:00 TS 8.42801 152.116 main 1250 1250 PPPP_____PP___ WP271979 8.54238 152.207 42 0 8.25498 152.113 4 55 990 8 50 35 8 137 75 8.31981 151.847 3 43 996 8.34242 152.035 TS 45 1000 8.54238 152.207 TC 42 8.56609 152.284 2 41 8 313
1979333N07169 1979 112 WP MM ABBY 1979-12-06 00:00:00 TS 8.73333 151.817 55 990 tokyo main 1281 1281 OOOO_____OO___ jtwc_wp WP271979 8.80000 151.900 35 0 8.60000 151.800 4 55 990 9 50 50 4 175 100 0 8.70000 151.600 2 38 998 8.70000 151.800 TS 45 1000 8.80000 151.900 TC 35 8.80000 151.900 2 35 9 315
1979333N07169 1979 112 WP MM ABBY 1979-12-06 03:00:00 TS 9.02693 151.503 main 1312 1312 PPPP_____PP___ WP271979 9.01492 151.495 32 -1 9.05214 151.667 4 55 990 9 50 50 4 175 100 9.10238 151.330 2 38 998 8.98727 151.567 TS 45 1000 9.01492 151.495 TC 32 8.98993 151.466 2 33 9 307
1979333N07169 1979 112 WP MM ABBY 1979-12-06 06:00:00 TS 9.26197 151.096 55 990 tokyo main 1341 1328 OOOO_____OP___ jtwc_wp WP271979 9.20000 151.000 30 -1 9.40000 151.400 4 55 990 9 50 50 4 175 100 0 9.40000 151.000 2 38 998 9.20000 151.200 TS 45 1000 9.20000 151.000 TC 30 9.17183 150.977 2 32 10 290
1979333N07169 1979 112 WP MM ABBY 1979-12-06 09:00:00 TS 9.37102 150.559 main 1336 1318 PPPP_____PP___ WP271979 9.35728 150.460 30 -1 9.40189 150.787 4 55 990 9 40 40 4 137 100 9.43698 150.620 2 38 998 9.32983 150.605 TS 45 1000 9.35728 150.460 TC 30 9.34283 150.425 2 31 13 278
1979333N07169 1979 112 WP MM ABBY 1979-12-06 12:00:00 TS 9.43333 149.833 55 990 tokyo main 1315 1310 OOOO_____OO___ jtwc_wp WP271979 9.50000 149.800 30 -1 9.30000 149.800 4 55 990 9 30 30 9 100 100 0 9.40000 150.000 2 38 998 9.40000 149.800 TS 45 1000 9.50000 149.800 TC 30 9.50000 149.800 1 30 17 275
1979333N07169 1979 112 WP MM ABBY 1979-12-06 15:00:00 TS 9.53119 148.836 main 1309 1307 PPPP_____PP___ WP271979 9.65770 148.965 30 -1 9.32905 148.335 4 52 990 9 9 100 100 9.46339 148.922 2 38 998 9.44290 148.800 TS 45 1000 9.65770 148.965 TC 30 9.63640 149.028 1 30 20 276
1979333N07169 1979 112 WP MM ABBY 1979-12-06 18:00:00 TS 9.64319 147.816 50 990 tokyo main 1311 1311 OOOO_____OP___ jtwc_wp WP271979 9.80000 148.100 30 -1 9.40000 146.900 4 50 990 0 9 100 100 0 9.60000 147.800 2 38 998 9.50000 147.800 TS 45 1000 9.80000 148.100 TC 30 9.75911 148.198 1 30 18 278
1979333N07169 1979 112 WP MM ABBY 1979-12-06 21:00:00 TS 9.77552 147.017 main 1333 1333 PPPP_____PP___ WP271979 9.90744 147.332 30 -1 9.46922 146.020 4 50 990 0 9 125 125 9.85710 147.038 2 38 998 9.63485 146.988 TS 45 997 9.90744 147.332 TC 30 9.87708 147.393 1 30 14 281
1979333N07169 1979 112 WP MM ABBY 1979-12-07 00:00:00 TS 9.91667 146.417 50 990 tokyo main 1344 1344 OOOO_____OO___ jtwc_wp WP271979 10.0000 146.700 30 -1 9.60000 145.500 4 50 990 0 9 150 150 0 10.1000 146.500 2 38 998 9.80000 146.400 TS 45 995 10.0000 146.700 TC 30 10.0000 146.700 1 30 10 285
1979333N07169 1979 112 WP MM ABBY 1979-12-07 03:00:00 TS 10.0488 146.008 main 1357 1357 PPPP_____PP___ WP271979 10.0848 146.240 32 -1 9.85727 145.160 4 50 991 0 9 150 150 10.1948 146.105 2 38 998 9.94973 146.082 TS 45 995 10.0848 146.240 TC 32 10.1215 146.219 1 31 7 291
1979333N07169 1979 112 WP MM ABBY 1979-12-07 06:00:00 TS 10.1756 145.726 50 992 tokyo main 1381 1381 OOOO_____OP___ jtwc_wp WP271979 10.2000 145.900 35 0 10.1000 145.000 4 50 992 0 9 150 150 0 10.2000 145.800 2 38 998 10.1000 145.900 TS 45 995 10.2000 145.900 TC 35 10.2538 145.857 1 32 6 293
1979333N07169 1979 112 WP MM ABBY 1979-12-07 09:00:00 TS 10.2832 145.444 main 1395 1395 PPPP_____PP___ WP271979 10.3849 145.577 35 0 10.1575 144.862 4 50 992 0 9 150 150 10.1200 145.427 2 38 998 10.2425 145.650 TS 42 995 10.3849 145.577 TC 35 10.4092 145.566 1 33 6 295
1979333N07169 1979 112 WP MM ABBY 1979-12-07 12:00:00 TS 10.4167 145.200 50 992 tokyo main 1409 1409 OOOO_____OO___ jtwc_wp WP271979 10.6000 145.300 35 0 10.2000 144.800 4 50 992 0 9 150 150 0 10.1000 145.100 2 38 999 10.4000 145.400 TS 40 995 10.6000 145.300 TC 35 10.6000 145.300 2 35 6 306
1979333N07169 1979 112 WP MM ABBY 1979-12-07 15:00:00 TS 10.6055 144.990 main 1434 1434 PPPP_____PP___ WP271979 10.7774 145.057 35 0 10.3475 144.800 4 47 992 0 9 125 125 10.2825 144.855 2 38 999 10.5850 145.150 TS 40 995 10.7774 145.057 TC 35 10.8630 145.018 2 35 6 318
1979333N07169 1979 112 WP MM ABBY 1979-12-07 18:00:00 TS 10.8595 144.791 45 992 tokyo main 1470 1470 OOOO_____OP___ jtwc_wp WP271979 11.0000 144.800 35 0 10.6000 144.800 3 45 992 0 9 100 100 0 10.6000 144.700 2 38 999 10.8000 144.900 TS 40 995 11.0000 144.800 TC 35 11.1569 144.745 2 35 7 326
1979333N07169 1979 112 WP MM ABBY 1979-12-07 21:00:00 TS 11.1857 144.594 main 1506 1506 PPPP_____PP___ WP271979 11.3500 144.473 35 0 10.9698 144.782 3 42 992 0 9 95 95 10.9773 144.710 2 38 999 11.0199 144.680 TS 37 995 11.3500 144.473 TC 35 11.4473 144.449 2 35 8 325
1979333N07169 1979 112 WP MM ABBY 1979-12-08 00:00:00 TS 11.5333 144.317 40 992 tokyo main 1544 1544 OOOO_____OO___ jtwc_wp WP271979 11.7000 144.100 35 0 11.4000 144.600 3 40 992 0 9 90 90 0 11.4000 144.600 2 38 999 11.3000 144.400 TS 35 995 11.7000 144.100 TC 35 11.7000 144.100 2 35 10 317
1979333N07169 1979 112 WP MM ABBY 1979-12-08 03:00:00 TS 11.8903 143.916 main 1596 1596 PPPP_____PP___ WP271979 11.9448 143.737 32 -1 11.8900 144.148 3 37 993 0 9 90 90 11.8974 144.121 2 38 999 11.7446 144.048 TS 32 995 11.9448 143.737 TC 32 11.9204 143.707 2 33 11 303
1979333N07169 1979 112 WP MM ABBY 1979-12-08 06:00:00 TS 12.1319 143.375 35 994 tokyo main 1629 1613 OOOO_____OP___ jtwc_wp WP271979 12.1000 143.300 30 -1 12.2000 143.500 3 35 994 0 9 90 90 0 12.2000 143.400 2 38 999 12.1000 143.500 TD 30 995 12.1000 143.300 TC 30 12.0915 143.251 2 32 12 282
1979333N07169 1979 112 WP MM ABBY 1979-12-08 09:00:00 TS 12.1421 142.697 main 1613 1580 PPPP_____PP___ WP271979 12.2099 142.753 30 -1 12.0675 142.779 3 35 994 0 9 90 90 12.0328 142.557 2 38 999 12.1406 142.622 TD 30 995 12.2099 142.753 TC 30 12.1919 142.719 2 31 14 265
1979333N07169 1979 112 WP MM ABBY 1979-12-08 12:00:00 TS 12.0167 141.950 35 994 tokyo main 1580 1543 OOOO_____OO___ jtwc_wp WP271979 12.2000 142.100 30 -1 11.8000 142.000 3 35 994 0 9 90 90 0 11.7000 141.700 2 38 999 12.0000 141.700 TD 30 995 12.2000 142.100 TC 30 12.2000 142.100 1 30 15 259
1979333N07169 1979 112 WP MM ABBY 1979-12-08 15:00:00 TS 11.8750 141.242 main 1538 1493 PPPP_____PP___ WP271979 12.0373 141.387 30 -1 11.7500 141.228 3 37 995 0 9 90 90 11.5196 141.020 2 38 999 11.7995 141.055 TD 30 995 12.0373 141.387 TC 30 12.1062 141.373 1 31 14 257
1979333N07169 1979 112 WP MM ABBY 1979-12-08 18:00:00 TS 11.7035 140.528 40 996 tokyo main 1490 1454 OOOO_____OP___ jtwc_wp WP271979 11.8000 140.600 30 -1 11.7000 140.500 3 40 996 0 9 90 90 0 11.4000 140.400 2 38 999 11.6000 140.500 TD 30 995 11.8000 140.600 TC 30 11.9208 140.566 1 32 15 257
1979333N07169 1979 112 WP MM ABBY 1979-12-08 21:00:00 TS 11.5419 139.799 main 1443 1409 PPPP_____PP___ WP271979 11.6000 139.750 32 -1 11.4996 139.900 3 997 0 9 11.3349 139.743 2 38 999 11.5422 139.923 TD 30 995 11.6000 139.750 TC 32 11.6748 139.726 1 33 15 257
1979333N07169 1979 112 WP MM ABBY 1979-12-09 00:00:00 TS 11.3833 139.067 998 tokyo main 1409 1352 OOOO_____OO___ jtwc_wp WP271979 11.4000 138.900 35 0 11.3000 139.300 2 998 0 0 0 11.3000 139.100 2 38 999 11.5000 139.300 TD 30 995 11.4000 138.900 TC 35 11.4000 138.900 2 35 14 258
1979333N07169 1979 112 WP MM ABBY 1979-12-09 03:00:00 TS 11.2393 138.364 main 1352 1275 PPPP_____PP___ WP271979 11.2222 138.128 35 0 11.3237 138.694 2 998 0 0 11.2497 138.515 2 38 998 11.3575 138.572 TD 32 992 11.2222 138.128 TC 35 11.0606 138.144 2 36 15 257
1979333N07169 1979 112 WP MM ABBY 1979-12-09 06:00:00 TS 11.0524 137.618 998 tokyo main 1264 1169 OOOO_____OP___ jtwc_wp WP271979 11.0000 137.400 35 0 11.2000 137.800 2 998 0 0 0 11.2000 137.900 2 38 998 11.2000 137.800 TS 35 990 11.0000 137.400 TC 35 10.7142 137.411 2 37 17 252
1979333N07169 1979 112 WP MM ABBY 1979-12-09 09:00:00 TS 10.7205 136.740 main 1159 1068 PPPP_____PP___ WP271979 10.6048 136.685 37 0 10.4428 136.157 2 991 0 0 11.1500 137.165 2 43 994 11.0848 137.050 TS 37 987 10.6048 136.685 TC 37 10.4357 136.697 2 38 18 251
1979333N07169 1979 112 WP MM ABBY 1979-12-09 12:00:00 TS 10.4667 135.900 45 985 tokyo main 1068 1005 OOOO_____OO___ jtwc_wp WP271979 10.3000 136.000 40 0 9.80000 134.700 3 45 985 0 9 100 100 0 11.1000 136.400 3 48 990 11.0000 136.300 TS 40 985 10.3000 136.000 TC 40 10.3000 136.000 2 40 15 261
1979333N07169 1979 112 WP MM ABBY 1979-12-09 15:00:00 TS 10.4830 135.245 main 994 943 PPPP_____PP___ WP271979 10.2873 135.350 42 0 9.98376 134.364 3 45 982 0 9 100 100 11.0350 135.647 3 48 987 10.9051 135.505 TS 40 985 10.2873 135.350 TC 42 10.3992 135.252 2 42 12 280
1979333N07169 1979 112 WP MM ABBY 1979-12-09 18:00:00 TS 10.6738 134.687 45 980 tokyo main 945 897 OOOO_____OP___ jtwc_wp WP271979 10.5000 134.700 45 0 10.5000 134.400 3 45 980 0 9 100 100 0 11.0000 135.000 3 48 985 10.9000 134.800 TS 40 985 10.5000 134.700 TC 45 10.6429 134.525 2 45 12 293
1979333N07169 1979 112 WP MM ABBY 1979-12-09 21:00:00 TS 10.9579 134.121 main 888 851 PPPP_____PP___ WP271979 10.8853 133.933 47 0 10.9299 134.160 3 52 982 0 9 125 125 11.0273 134.540 3 53 982 11.0547 134.298 TS 42 982 10.8853 133.933 TC 47 10.9650 133.861 2 47 12 300
1979333N07169 1979 112 WP MM ABBY 1979-12-10 00:00:00 TS 11.2667 133.633 60 985 tokyo main 843 815 OOOO_____OO___ jtwc_wp WP271979 11.3000 133.300 50 0 11.3000 133.800 4 60 985 9 40 40 9 150 150 0 11.1000 134.200 3 58 980 11.3000 133.900 TS 45 980 11.3000 133.300 TC 50 11.3000 133.300 2 50 10 301
1979333N07169 1979 112 WP MM ABBY 1979-12-10 03:00:00 TS 11.4541 133.280 main 818 788 PPPP_____PP___ WP271979 11.5146 133.055 55 0 11.4652 133.257 4 60 982 9 40 40 9 150 150 11.1548 133.915 3 58 977 11.5424 133.492 TS 47 977 11.5146 133.055 TC 55 11.5327 132.904 2 55 8 300
1979333N07169 1979 112 WP MM ABBY 1979-12-10 06:00:00 TS 11.6448 132.968 60 980 tokyo main 788 748 OOOO_____OP___ jtwc_wp WP271979 11.7000 132.900 60 0 11.6000 132.700 4 60 980 9 40 40 9 150 150 0 11.3000 133.600 3 58 975 11.8000 133.100 STS 50 975 11.7000 132.900 TC 60 11.7687 132.609 2 60 8 304
1979333N07169 1979 112 WP MM ABBY 1979-12-10 09:00:00 TS 11.9092 132.599 main 748 710 PPPP_____PP___ WP271979 11.9700 132.537 65 1 11.8623 132.320 4 60 977 9 40 40 9 150 150 11.5975 133.137 3 58 975 12.0349 132.700 STS 52 972 11.9700 132.537 TC 65 12.0204 132.360 2 65 10 308
1979333N07169 1979 112 WP MM ABBY 1979-12-10 12:00:00 TS 12.2333 132.200 60 975 tokyo main 710 677 OOOO_____OO___ jtwc_wp WP271979 12.3000 132.100 70 1 12.2000 132.000 4 60 975 9 40 40 9 150 150 0 12.0000 132.600 3 58 975 12.3000 132.300 STS 55 970 12.3000 132.100 TC 70 12.3000 132.100 4 70 11 311
1979333N07169 1979 112 WP MM ABBY 1979-12-10 15:00:00 TS 12.6172 131.759 main 677 645 PPPP_____PP___ WP271979 12.7001 131.635 72 1 12.5925 131.643 4 60 972 9 40 40 9 150 150 12.4426 132.035 3 63 972 12.6424 131.900 STS 57 967 12.7001 131.635 TC 72 12.6256 131.706 4 72 12 313
1979333N07169 1979 112 WP MM ABBY 1979-12-10 18:00:00 TS 13.0130 131.333 60 970 tokyo main 636 609 OOOO_____OP___ jtwc_wp WP271979 13.1000 131.200 75 1 13.0000 131.300 4 60 970 9 40 40 9 150 150 0 12.9000 131.500 4 68 970 13.0000 131.500 STS 60 965 13.1000 131.200 TC 75 12.9780 131.298 4 75 11 314
1979333N07169 1979 112 WP MM ABBY 1979-12-10 21:00:00 TS 13.3622 130.963 main 611 585 PPPP_____PP___ WP271979 13.4224 130.870 77 1 13.3650 130.985 4 65 967 9 47 47 9 150 150 13.3224 131.062 4 72 967 13.3000 131.077 STS 65 965 13.4224 130.870 TC 77 13.3413 130.916 4 77 9 315
1979333N07169 1979 112 WP MM ABBY 1979-12-11 00:00:00 TS 13.6833 130.650 70 965 tokyo main 588 564 OOOO_____OO___ jtwc_wp WP271979 13.7000 130.600 80 1 13.7000 130.700 5 70 965 9 55 55 9 150 150 0 13.7000 130.700 4 77 965 13.6000 130.700 T 70 965 13.7000 130.600 TC 80 13.7000 130.600 4 80 9 316
1979333N07169 1979 112 WP MM ABBY 1979-12-11 03:00:00 TS 13.9784 130.357 main 567 551 PPPP_____PP___ WP271979 13.9350 130.305 82 1 14.0150 130.420 5 70 965 9 57 57 9 175 175 14.0150 130.333 4 77 965 13.9424 130.405 T 70 965 13.9350 130.305 TC 82 14.0278 130.374 4 82 8 321
1979333N07169 1979 112 WP MM ABBY 1979-12-11 06:00:00 TS 14.2749 130.154 70 965 tokyo main 560 550 OOOO_____OP___ jtwc_wp WP271979 14.2000 130.100 85 2 14.3000 130.200 5 70 965 9 60 60 9 200 200 0 14.3000 130.100 4 77 965 14.3000 130.200 T 70 965 14.2000 130.100 TC 85 14.3496 130.222 4 85 7 336
1979333N07169 1979 112 WP MM ABBY 1979-12-11 09:00:00 TS 14.6057 130.075 main 565 565 PPPP_____PP___ WP271979 14.5850 130.055 87 2 14.5425 130.055 5 70 962 9 65 65 9 200 200 14.5924 130.097 4 82 962 14.6575 130.055 T 70 962 14.5850 130.055 TC 87 14.6717 130.134 4 87 7 354
1979333N07169 1979 112 WP MM ABBY 1979-12-11 12:00:00 TS 14.9500 130.083 70 960 tokyo main 587 582 OOOO_____OO___ jtwc_wp WP271979 15.0000 130.100 90 2 14.8000 130.000 5 70 960 9 70 70 9 200 200 0 14.9000 130.200 5 87 960 15.0000 130.000 T 70 960 15.0000 130.100 TC 90 15.0000 130.100 4 90 7 0
1979333N07169 1979 112 WP MM ABBY 1979-12-11 15:00:00 TS 15.2841 130.100 main 606 606 PPPP_____PP___ WP271979 15.3575 130.142 95 2 15.1200 130.013 5 70 957 9 65 65 9 200 200 15.2350 130.243 5 87 957 15.3000 130.020 T 70 957 15.3575 130.142 TC 95 15.3343 130.039 4 92 7 6
1979333N07169 1979 112 WP MM ABBY 1979-12-11 18:00:00 TS 15.6295 130.156 70 955 tokyo main 634 634 OOOO_____OP___ jtwc_wp WP271979 15.7000 130.200 100 3 15.5000 130.100 5 70 955 9 60 60 9 200 200 0 15.6000 130.300 5 87 955 15.6000 130.100 T 70 955 15.7000 130.200 TC 100 15.6769 130.036 4 95 7 8
1979333N07169 1979 112 WP MM ABBY 1979-12-11 21:00:00 TS 16.0026 130.211 main 661 661 PPPP_____PP___ WP271979 16.0499 130.205 100 3 15.9499 130.213 5 75 955 9 67 67 9 212 212 16.0000 130.370 5 87 954 15.9349 130.155 T 75 955 16.0499 130.205 TC 100 16.0310 130.115 4 97 8 14
1979333N07169 1979 112 WP MM ABBY 1979-12-12 00:00:00 TS 16.3833 130.350 80 955 tokyo main 692 692 OOOO_____OO___ jtwc_wp WP271979 16.4000 130.300 100 3 16.4000 130.400 5 80 955 9 75 75 9 225 225 0 16.4000 130.500 5 87 953 16.3000 130.300 T 80 955 16.4000 130.300 TC 100 16.4000 130.300 4 100 8 28
1979333N07169 1979 112 WP MM ABBY 1979-12-12 03:00:00 TS 16.7387 130.616 main 735 735 PPPP_____PP___ WP271979 16.7350 130.583 100 3 16.7499 130.648 5 85 952 9 77 77 9 225 225 16.7499 130.698 5 87 952 16.6850 130.598 T 85 955 16.7350 130.583 TC 100 16.7774 130.585 4 100 10 40
1979333N07169 1979 112 WP MM ABBY 1979-12-12 06:00:00 TS 17.1116 130.996 90 950 tokyo main 792 792 OOOO_____OP___ jtwc_wp WP271979 17.1000 131.000 100 3 17.1000 131.000 5 90 950 9 80 80 9 225 225 0 17.1000 131.000 5 87 952 17.1000 131.000 ST 90 955 17.1000 131.000 TC 100 17.1697 130.978 4 100 11 45
1979333N07169 1979 112 WP MM ABBY 1979-12-12 09:00:00 TS 17.5324 131.440 main 850 850 PPPP_____PP___ WP271979 17.5350 131.470 100 3 17.5275 131.455 5 87 950 9 80 80 9 225 225 17.4773 131.390 5 87 952 17.5422 131.398 ST 87 952 17.5350 131.470 TC 100 17.5772 131.457 4 100 13 47
1979333N07169 1979 112 WP MM ABBY 1979-12-12 12:00:00 TS 17.9833 131.967 85 950 tokyo main 933 933 OOOO_____OO___ jtwc_wp WP271979 18.0000 132.000 100 3 18.0000 132.000 5 85 950 9 80 80 9 225 225 0 17.9000 131.900 5 87 952 18.0000 131.900 ST 85 950 18.0000 132.000 TC 100 18.0000 132.000 4 100 14 49
1979333N07169 1979 112 WP MM ABBY 1979-12-12 15:00:00 TS 18.4525 132.535 main 1006 1006 PPPP_____PP___ WP271979 18.4497 132.520 100 3 18.5072 132.563 5 80 950 9 75 75 9 212 212 18.4075 132.512 5 87 951 18.4502 132.570 ST 80 950 18.4497 132.520 TC 100 18.4509 132.523 4 102 15 51
1979333N07169 1979 112 WP MM ABBY 1979-12-12 18:00:00 TS 18.9189 133.168 75 950 tokyo main 1092 1092 OOOO_____OP___ jtwc_wp WP271979 18.9000 133.100 100 3 19.0000 133.200 5 75 950 9 70 70 9 200 200 0 18.9000 133.200 5 87 951 18.9000 133.300 T 75 950 18.9000 133.100 TC 100 18.9133 133.108 4 105 15 54
1979333N07169 1979 112 WP MM ABBY 1979-12-12 21:00:00 TS 19.3583 133.836 main 1175 1175 PPPP_____PP___ WP271979 19.3647 133.755 105 3 19.4223 133.920 5 75 952 9 70 70 9 200 200 19.2647 133.886 5 87 953 19.3644 133.935 T 75 950 19.3647 133.755 TC 105 19.3691 133.764 4 107 16 57
1979333N07169 1979 112 WP MM ABBY 1979-12-13 00:00:00 TS 19.7667 134.567 75 955 tokyo main 1270 1270 OOOO_____OO___ jtwc_wp WP271979 19.8000 134.500 110 3 19.8000 134.700 5 75 955 9 70 70 9 200 200 0 19.6000 134.600 5 87 955 19.8000 134.600 T 75 950 19.8000 134.500 TC 110 19.8000 134.500 4 110 16 61
1979333N07169 1979 112 WP MM ABBY 1979-12-13 03:00:00 TS 20.1382 135.339 main 1301 1289 PPPP_____PP___ WP271979 20.1647 135.313 110 3 20.1569 135.471 5 77 957 9 70 70 9 200 200 19.9916 135.298 5 87 957 20.1570 135.348 T 72 955 20.1647 135.313 TC 110 20.1943 135.293 4 105 17 65
1979333N07169 1979 112 WP MM ABBY 1979-12-13 06:00:00 TS 20.4931 136.194 80 960 tokyo main 1295 1289 OOOO_____OP___ jtwc_wp WP271979 20.5000 136.200 110 3 20.5000 136.300 5 80 960 9 70 70 9 200 200 0 20.4000 136.100 5 87 960 20.5000 136.200 T 70 960 20.5000 136.200 TC 110 20.5586 136.166 4 100 18 67
1979333N07169 1979 112 WP MM ABBY 1979-12-13 09:00:00 TS 20.8608 137.142 main 1296 1296 PPPP_____PP___ WP271979 20.8571 137.128 100 3 20.8496 137.213 5 80 965 9 70 70 9 200 200 20.8077 137.113 5 82 962 20.8998 137.163 T 75 965 20.8571 137.128 TC 100 20.8936 137.106 4 95 20 68
1979333N07169 1979 112 WP MM ABBY 1979-12-13 12:00:00 TS 21.2167 138.150 80 970 tokyo main 1324 1319 OOOO_____OO___ jtwc_wp WP271979 21.2000 138.100 90 2 21.2000 138.200 5 80 970 9 70 70 9 200 200 0 21.2000 138.200 4 77 965 21.3000 138.200 T 80 970 21.2000 138.100 TC 90 21.2000 138.100 4 90 20 69
1979333N07169 1979 112 WP MM ABBY 1979-12-13 15:00:00 TS 21.5615 139.139 main 1334 1334 PPPP_____PP___ WP271979 21.5216 139.070 85 2 21.5642 139.213 5 75 975 9 70 70 9 187 187 21.5787 139.178 4 72 972 21.6865 139.220 T 77 975 21.5216 139.070 TC 85 21.4965 139.085 4 82 20 71
1979333N07169 1979 112 WP MM ABBY 1979-12-13 18:00:00 TS 21.8606 140.187 70 980 tokyo main 1354 1354 OOOO_____OP___ jtwc_wp WP271979 21.8000 140.100 80 1 21.9000 140.300 5 70 980 9 70 70 9 175 175 0 21.9000 140.200 4 68 980 22.0000 140.300 T 75 980 21.8000 140.100 TC 80 21.7635 140.124 4 75 21 76
1979333N07169 1979 112 WP MM ABBY 1979-12-13 21:00:00 TS 22.0861 141.331 main 1372 1372 PPPP_____PP___ WP271979 22.0143 141.213 70 1 22.1799 141.493 5 65 982 9 65 65 9 175 175 22.1297 141.371 4 63 986 22.1794 141.471 T 67 985 22.0143 141.213 TC 70 21.9987 141.226 4 67 22 79
1979333N07169 1979 112 WP MM ABBY 1979-12-14 00:00:00 TS 22.2667 142.533 60 985 tokyo main 1402 1402 OOOO_____OO___ jtwc_wp WP271979 22.2000 142.400 60 0 22.4000 142.700 4 60 985 9 60 60 9 175 175 0 22.3000 142.600 3 58 992 22.3000 142.700 STS 60 990 22.2000 142.400 TC 60 22.2000 142.400 2 60 23 81
1979333N07169 1979 112 WP MM ABBY 1979-12-14 03:00:00 TS 22.4491 143.731 main 1442 1435 PPPP_____PP___ WP271979 22.4213 143.612 50 0 22.5704 143.771 4 52 990 9 9 162 162 22.4639 143.793 3 53 994 22.4492 143.943 STS 55 995 22.4213 143.612 TC 50 22.3685 143.655 2 52 23 82
1979333N07169 1979 112 WP MM ABBY 1979-12-14 06:00:00 TS 22.6003 144.979 45 996 tokyo main 1459 1459 OOOO_____OP___ jtwc_wp WP271979 22.6000 144.900 40 0 22.7000 144.900 3 45 996 0 9 150 150 0 22.6000 145.000 3 48 996 22.6000 145.200 STS 50 1000 22.6000 144.900 TC 40 22.5016 144.977 2 45 24 84
1979333N07169 1979 112 WP MM ABBY 1979-12-14 09:00:00 TS 22.7050 146.305 main 1496 1496 PPPP_____PP___ WP271979 22.6722 146.293 35 0 22.8070 146.240 3 998 0 9 22.7096 146.240 3 38 998 22.7627 146.398 STS 45 1001 22.6722 146.293 TC 35 22.6086 146.336 2 37 25 86
1979333N07169 1979 112 WP MM ABBY 1979-12-14 12:00:00 TS 22.7750 147.690 1000 tokyo main 1547 1547 OOOO_____OO___ jtwc_wp WP271979 22.7000 147.700 30 -1 22.9000 147.700 2 1000 0 0 0 22.8000 147.500 1 29 1000 22.9000 147.700 TS 40 1002 22.7000 147.700 TC 30 22.7000 147.700 5 30 26 87
1979333N07169 1979 112 WP MM ABBY 1979-12-14 15:00:00 TS 22.8326 149.089 main 1618 1618 PP_P_____PP___ WP271979 22.7409 149.008 30 -1 22.9925 149.223 2 1000 0 0 1 22.9745 149.230 TS 35 1002 22.7409 149.008 TC 30 22.7849 149.045 5 28 26 87
1979333N07169 1979 112 WP MM ABBY 1979-12-14 18:00:00 TS 22.9138 150.473 1000 tokyo main 1684 1684 OO_O_____OP___ jtwc_wp WP271979 22.8000 150.300 30 -1 23.1000 150.700 2 1000 0 0 0 23.0000 150.900 TD 30 1002 22.8000 150.300 TC 30 22.8643 150.373 5 27 25 85
1979333N07169 1979 112 WP MM ABBY 1979-12-14 21:00:00 TS 23.0314 151.778 main 1751 1751 PP_______PP___ WP271979 22.8927 151.634 27 -1 23.2175 151.966 2 1003 0 0 TD 22.8927 151.634 TC 27 22.9366 151.689 5 26 25 83
1979333N07169 1979 112 WP MM ABBY 1979-12-15 00:00:00 MX 23.2286 153.114 1006 tokyo main 1815 1815 OO_______OO___ jtwc_wp WP271979 23.0000 153.000 25 -1 23.4000 153.200 6 1006 0 0 0 23.0000 153.000 TC 25 23.0000 153.000 5 25 26 76
1979333N07169 1979 112 WP MM ABBY 1979-12-15 03:00:00 ET 23.6914 154.562 main 1875 1875 _P____________ WP271979 -1 23.6914 154.562 6 1007 0 0 TC 5 28 74
1979333N07169 1979 112 WP MM ABBY 1979-12-15 06:00:00 ET 24.0000 156.000 1008 tokyo main 1949 1949 _O____________ -1 24.0000 156.000 6 1008 0 0 0 5 27 79
1979333N07169 1979 112 WP MM ABBY 1979-12-15 09:00:00 ET 24.2305 157.487 main 2043 2043 _P____________ -1 24.2305 157.487 6 1010 0 0 5 28 82
1979333N07169 1979 112 WP MM ABBY 1979-12-15 12:00:00 ET 24.4000 159.000 1012 tokyo main 2142 _O____________ -1 24.4000 159.000 6 1012 0 0 0 28 83

Digital Typhoon Data and Search

About IBTrACS Database

This database is a web-friendly format of International Best Track Archive for Climate Stewardship (IBTrACS), a global best track data archive curated by NOAA dating back to 1842.

Updated: 2021-10-08